Time;durP1;ratioP1;P1;durP2;ratioP2;P2;SDS_P1;SDS_P2;PMS_P1;PMS_P2;Temp;Humidity;BMP_temperature;BMP_pressure;BME280_temperature;BME280_humidity;BME280_pressure;Samples;Min_cycle;Max_cycle;Signal;HPM_P1;HPM_P2
2023/01/13 00:01:19;;;;;;;17.60;10.40;;;;;;;;;;4887000;29;20024;-68
2023/01/13 00:03:47;;;;;;;20.63;10.88;;;;;;;;;;4873103;29;20068;-68
2023/01/13 00:06:18;;;;;;;18.52;10.57;;;;;;;;;;4894192;29;20063;-67
2023/01/13 00:08:48;;;;;;;19.05;10.82;;;;;;;;;;4881375;29;20119;-67
2023/01/13 00:11:14;;;;;;;20.65;10.75;;;;;;;;;;4887938;29;20037;-67
2023/01/13 00:13:40;;;;;;;24.20;11.55;;;;;;;;;;4874302;29;20069;-67
2023/01/13 00:16:11;;;;;;;18.73;11.00;;;;;;;;;;4884514;29;20289;-67
2023/01/13 00:18:37;;;;;;;23.48;11.88;;;;;;;;;;4879433;29;20125;-67
2023/01/13 00:21:06;;;;;;;23.30;10.95;;;;;;;;;;4878954;29;20108;-67
2023/01/13 00:23:34;;;;;;;26.75;11.95;;;;;;;;;;4878845;29;20052;-67
2023/01/13 00:26:07;;;;;;;29.00;12.35;;;;;;;;;;4862587;29;20113;-67
2023/01/13 00:28:33;;;;;;;25.88;12.27;;;;;;;;;;4879412;29;20079;-67
2023/01/13 00:31:12;;;;;;;36.17;15.27;;;;;;;;;;4870090;29;20033;-68
2023/01/13 00:33:38;;;;;;;39.55;16.30;;;;;;;;;;4879253;29;20040;-68
2023/01/13 00:36:06;;;;;;;30.42;15.48;;;;;;;;;;4879002;29;20049;-68
2023/01/13 00:38:34;;;;;;;36.30;15.07;;;;;;;;;;4875492;29;20425;-68
2023/01/13 00:41:03;;;;;;;30.65;15.52;;;;;;;;;;4878835;29;20331;-68
2023/01/13 00:43:31;;;;;;;25.15;14.20;;;;;;;;;;4870691;29;20033;-67
2023/01/13 00:45:58;;;;;;;24.15;14.25;;;;;;;;;;4879776;29;20025;-67
2023/01/13 00:48:24;;;;;;;30.27;15.27;;;;;;;;;;4860654;29;20045;-68
2023/01/13 00:50:55;;;;;;;32.50;16.27;;;;;;;;;;4870907;29;20077;-68
2023/01/13 00:53:21;;;;;;;29.15;16.15;;;;;;;;;;4879601;29;20132;-67
2023/01/13 00:55:47;;;;;;;27.90;15.50;;;;;;;;;;4879696;29;20100;-68
2023/01/13 00:58:15;;;;;;;28.85;14.77;;;;;;;;;;4879736;29;20045;-68
2023/01/13 01:00:41;;;;;;;31.23;15.20;;;;;;;;;;4879232;29;20028;-67
2023/01/13 01:03:11;;;;;;;27.98;16.23;;;;;;;;;;4873392;29;20103;-68
2023/01/13 01:05:38;;;;;;;27.55;15.15;;;;;;;;;;4876143;29;20093;-68
2023/01/13 01:08:05;;;;;;;26.20;15.13;;;;;;;;;;4874579;29;20045;-67
2023/01/13 01:10:30;;;;;;;27.80;14.55;;;;;;;;;;4871449;29;20033;-67
2023/01/13 01:12:56;;;;;;;28.02;13.75;;;;;;;;;;4879496;29;20054;-67
2023/01/13 01:15:22;;;;;;;25.38;13.82;;;;;;;;;;4879169;29;20062;-68
2023/01/13 01:17:48;;;;;;;20.73;11.88;;;;;;;;;;4871514;29;20033;-67
2023/01/13 01:20:13;;;;;;;23.33;13.10;;;;;;;;;;4862408;29;20025;-67
2023/01/13 01:22:39;;;;;;;22.35;11.95;;;;;;;;;;4871640;29;20515;-67
2023/01/13 01:25:06;;;;;;;20.77;11.65;;;;;;;;;;4879218;29;20029;-67
2023/01/13 01:27:31;;;;;;;22.83;11.82;;;;;;;;;;4877598;29;20175;-68
2023/01/13 01:29:57;;;;;;;20.83;11.25;;;;;;;;;;4872779;29;20442;-68
2023/01/13 01:32:23;;;;;;;23.23;11.25;;;;;;;;;;4878943;29;20448;-68
2023/01/13 01:34:50;;;;;;;22.95;11.98;;;;;;;;;;4875449;29;20384;-68
2023/01/13 01:37:16;;;;;;;24.30;11.27;;;;;;;;;;4875117;29;20488;-69
2023/01/13 01:39:42;;;;;;;20.92;10.15;;;;;;;;;;4868529;29;20134;-68
2023/01/13 01:45:09;;;;;;;15.80;8.27;;;;;;;;;;4865150;29;20491;-68
2023/01/13 01:47:35;;;;;;;14.20;7.53;;;;;;;;;;4871105;29;20041;-68
2023/01/13 01:50:05;;;;;;;13.55;7.47;;;;;;;;;;4871037;29;20040;-67
2023/01/13 01:52:36;;;;;;;11.60;6.90;;;;;;;;;;4878630;29;20128;-67
2023/01/13 01:55:01;;;;;;;16.05;7.72;;;;;;;;;;4871251;29;20045;-67
2023/01/13 01:57:38;;;;;;;14.93;7.78;;;;;;;;;;4870742;29;20531;-67
2023/01/13 02:00:04;;;;;;;14.02;6.55;;;;;;;;;;4861661;29;20048;-68
2023/01/13 02:02:38;;;;;;;14.93;7.65;;;;;;;;;;4878564;29;20076;-68
2023/01/13 02:05:05;;;;;;;14.75;7.78;;;;;;;;;;4873267;29;20034;-67
2023/01/13 02:07:33;;;;;;;17.98;7.90;;;;;;;;;;4868445;29;20112;-67
2023/01/13 02:10:03;;;;;;;16.73;7.55;;;;;;;;;;4873701;29;20094;-66
2023/01/13 02:12:30;;;;;;;14.55;7.63;;;;;;;;;;4875999;29;20105;-66
2023/01/13 02:15:19;;;;;;;18.30;9.48;;;;;;;;;;4870605;29;20543;-67
2023/01/13 02:17:54;;;;;;;17.55;9.73;;;;;;;;;;4873712;29;20076;-67
2023/01/13 02:20:57;;;;;;;18.42;9.27;;;;;;;;;;4874371;29;20037;-68
2023/01/13 02:26:56;;;;;;;16.70;8.68;;;;;;;;;;4875381;29;20039;-66
2023/01/13 02:32:37;;;;;;;18.77;9.50;;;;;;;;;;4874589;29;20108;-68
2023/01/13 02:35:08;;;;;;;15.93;8.75;;;;;;;;;;4878185;29;20040;-67
2023/01/13 02:37:37;;;;;;;20.98;11.02;;;;;;;;;;4877863;29;20072;-67
2023/01/13 02:40:08;;;;;;;24.95;12.35;;;;;;;;;;4877832;29;20025;-67
2023/01/13 02:45:40;;;;;;;15.48;8.65;;;;;;;;;;4876465;29;20053;-67
2023/01/13 02:48:07;;;;;;;17.25;8.82;;;;;;;;;;4872279;29;20491;-67
2023/01/13 02:50:43;;;;;;;14.23;8.32;;;;;;;;;;4877882;29;20033;-67
2023/01/13 02:53:33;;;;;;;14.93;8.40;;;;;;;;;;4877957;29;20064;-68
2023/01/13 02:56:02;;;;;;;17.95;8.32;;;;;;;;;;4867104;29;20034;-67
2023/01/13 02:58:30;;;;;;;14.50;8.77;;;;;;;;;;4874954;29;20107;-68
2023/01/13 03:00:56;;;;;;;15.80;9.00;;;;;;;;;;4877839;29;20037;-68
2023/01/13 03:03:22;;;;;;;15.77;9.07;;;;;;;;;;4870512;29;20033;-68
2023/01/13 03:05:51;;;;;;;17.98;8.45;;;;;;;;;;4877445;29;20029;-68
2023/01/13 03:08:58;;;;;;;15.07;8.15;;;;;;;;;;4877665;29;20031;-68
2023/01/13 03:11:32;;;;;;;17.30;7.50;;;;;;;;;;4868869;29;20069;-67
2023/01/13 03:13:57;;;;;;;15.45;8.00;;;;;;;;;;4873861;29;20030;-67
2023/01/13 03:16:55;;;;;;;15.75;8.00;;;;;;;;;;4874267;29;20025;-67
2023/01/13 03:19:27;;;;;;;20.55;8.82;;;;;;;;;;4873832;29;20052;-67
2023/01/13 03:22:11;;;;;;;14.98;8.23;;;;;;;;;;4870191;29;20044;-67
2023/01/13 03:24:46;;;;;;;14.45;8.63;;;;;;;;;;4869118;29;20078;-67
2023/01/13 03:27:29;;;;;;;14.38;8.32;;;;;;;;;;4872766;29;20041;-67
2023/01/13 03:30:08;;;;;;;18.73;8.18;;;;;;;;;;4862709;29;20534;-67
2023/01/13 03:32:35;;;;;;;15.15;8.23;;;;;;;;;;4876736;29;20120;-67
2023/01/13 03:35:07;;;;;;;15.20;8.48;;;;;;;;;;4871065;29;20395;-67
2023/01/13 03:37:37;;;;;;;22.27;10.45;;;;;;;;;;4870236;29;20033;-68
2023/01/13 03:40:09;;;;;;;17.52;9.93;;;;;;;;;;4878149;29;20048;-67
2023/01/13 03:42:37;;;;;;;19.83;9.82;;;;;;;;;;4877845;29;20044;-68
2023/01/13 03:45:11;;;;;;;19.58;9.73;;;;;;;;;;4881171;29;20066;-67
2023/01/13 03:47:45;;;;;;;25.00;11.77;;;;;;;;;;4864327;29;20116;-68
2023/01/13 03:50:20;;;;;;;19.08;9.43;;;;;;;;;;4861469;29;20041;-67
2023/01/13 03:52:50;;;;;;;19.80;10.80;;;;;;;;;;4878686;29;20446;-67
2023/01/13 03:55:21;;;;;;;16.55;9.40;;;;;;;;;;4880930;29;20494;-68
2023/01/13 03:57:59;;;;;;;19.77;9.73;;;;;;;;;;4880822;29;20518;-67
2023/01/13 04:00:31;;;;;;;19.40;9.80;;;;;;;;;;4880517;29;20044;-67
2023/01/13 04:03:04;;;;;;;23.83;9.15;;;;;;;;;;4880766;29;20101;-67
2023/01/13 04:05:33;;;;;;;17.33;9.20;;;;;;;;;;4880622;29;20033;-67
2023/01/13 04:08:19;;;;;;;14.00;7.88;;;;;;;;;;4880520;29;20090;-68
2023/01/13 04:10:55;;;;;;;17.05;9.85;;;;;;;;;;4880437;29;20048;-67
2023/01/13 04:13:23;;;;;;;17.75;9.90;;;;;;;;;;4880689;29;20538;-68
2023/01/13 04:15:49;;;;;;;17.05;9.10;;;;;;;;;;4880367;29;20070;-67
2023/01/13 04:18:24;;;;;;;17.92;9.13;;;;;;;;;;4880867;29;20056;-68
2023/01/13 04:20:52;;;;;;;16.67;8.98;;;;;;;;;;4880456;29;20080;-68
2023/01/13 04:23:19;;;;;;;18.30;9.38;;;;;;;;;;4880445;29;20037;-69
2023/01/13 04:25:46;;;;;;;20.27;9.45;;;;;;;;;;4880444;29;20104;-68
2023/01/13 04:28:13;;;;;;;17.50;9.20;;;;;;;;;;4880672;29;20033;-70
2023/01/13 04:30:39;;;;;;;21.98;10.82;;;;;;;;;;4880118;29;20060;-68
2023/01/13 04:33:04;;;;;;;21.38;10.77;;;;;;;;;;4871920;29;20083;-68
2023/01/13 04:35:31;;;;;;;23.10;11.15;;;;;;;;;;4880043;29;20044;-68
2023/01/13 04:38:00;;;;;;;32.13;12.02;;;;;;;;;;4879917;29;20029;-67
2023/01/13 04:40:26;;;;;;;30.00;14.07;;;;;;;;;;4880053;29;20037;-67
2023/01/13 04:42:52;;;;;;;31.50;14.57;;;;;;;;;;4879821;29;20133;-67
2023/01/13 04:45:17;;;;;;;32.92;14.70;;;;;;;;;;4879705;29;20040;-67
2023/01/13 04:47:43;;;;;;;30.80;13.05;;;;;;;;;;4862950;29;20033;-67
2023/01/13 04:50:10;;;;;;;29.08;12.95;;;;;;;;;;4879797;29;20112;-67
2023/01/13 04:52:37;;;;;;;41.20;15.07;;;;;;;;;;4880708;29;20036;-67
2023/01/13 04:55:04;;;;;;;27.08;13.65;;;;;;;;;;4878932;29;20081;-67
2023/01/13 04:57:29;;;;;;;32.28;13.75;;;;;;;;;;4879636;29;20029;-67
2023/01/13 04:59:55;;;;;;;30.13;14.57;;;;;;;;;;4879110;29;20043;-68
2023/01/13 05:02:21;;;;;;;31.63;13.50;;;;;;;;;;4870092;29;20376;-68
2023/01/13 05:04:47;;;;;;;31.70;13.43;;;;;;;;;;4879121;29;20044;-68
2023/01/13 05:07:14;;;;;;;26.83;12.55;;;;;;;;;;4877815;29;20108;-68
2023/01/13 05:09:40;;;;;;;31.65;12.68;;;;;;;;;;4880718;29;20181;-69
2023/01/13 05:17:35;;;;;;;35.45;16.08;;;;;;;;;;4878395;29;20411;-67
2023/01/13 05:20:01;;;;;;;25.80;13.73;;;;;;;;;;4879911;29;20483;-68
2023/01/13 05:25:20;;;;;;;33.30;14.73;;;;;;;;;;4887456;29;20514;-68
2023/01/13 05:27:47;;;;;;;26.10;14.20;;;;;;;;;;4886263;29;20065;-67
2023/01/13 05:30:13;;;;;;;25.48;13.18;;;;;;;;;;4885336;29;20028;-68
2023/01/13 05:32:39;;;;;;;26.67;12.50;;;;;;;;;;4887113;29;20046;-67
2023/01/13 05:35:05;;;;;;;28.20;13.75;;;;;;;;;;4888072;29;20116;-68
2023/01/13 05:37:31;;;;;;;28.48;14.88;;;;;;;;;;4886227;29;20124;-69
2023/01/13 05:45:25;;;;;;;30.98;15.50;;;;;;;;;;4873053;29;20043;-68
2023/01/13 05:47:50;;;;;;;29.05;14.20;;;;;;;;;;4878257;29;20025;-68
2023/01/13 05:50:17;;;;;;;32.13;15.50;;;;;;;;;;4878104;29;20044;-68
2023/01/13 05:52:42;;;;;;;35.75;16.40;;;;;;;;;;4878111;29;20025;-68
2023/01/13 05:55:09;;;;;;;37.35;17.52;;;;;;;;;;4877933;29;20040;-68
2023/01/13 05:57:35;;;;;;;35.35;15.57;;;;;;;;;;4877862;29;20060;-67
2023/01/13 06:00:03;;;;;;;35.15;17.17;;;;;;;;;;4877955;29;20045;-68
2023/01/13 06:02:37;;;;;;;37.17;16.17;;;;;;;;;;4878218;29;20057;-69
2023/01/13 06:05:03;;;;;;;37.03;14.65;;;;;;;;;;4877567;29;20044;-67
2023/01/13 06:07:30;;;;;;;34.17;15.00;;;;;;;;;;4877078;29;20037;-68
2023/01/13 06:09:55;;;;;;;26.63;14.00;;;;;;;;;;4879547;29;20045;-68
2023/01/13 06:12:21;;;;;;;28.52;13.80;;;;;;;;;;4878196;29;20036;-68
2023/01/13 06:14:47;;;;;;;24.60;12.60;;;;;;;;;;4877851;29;20032;-68
2023/01/13 06:17:14;;;;;;;40.30;14.38;;;;;;;;;;4877641;29;20258;-68
2023/01/13 06:19:40;;;;;;;48.15;17.73;;;;;;;;;;4877429;29;20104;-68
2023/01/13 06:22:16;;;;;;;32.63;13.43;;;;;;;;;;4877349;29;20072;-68
2023/01/13 06:24:47;;;;;;;34.90;13.70;;;;;;;;;;4877524;29;20032;-68
2023/01/13 06:27:13;;;;;;;33.80;12.32;;;;;;;;;;4877363;29;20044;-68
2023/01/13 06:29:39;;;;;;;30.15;12.38;;;;;;;;;;4877445;29;20035;-67
2023/01/13 06:32:10;;;;;;;42.40;14.68;;;;;;;;;;4877323;29;20037;-68
2023/01/13 06:34:36;;;;;;;37.75;16.65;;;;;;;;;;4877515;29;20095;-68
2023/01/13 06:37:03;;;;;;;35.15;13.60;;;;;;;;;;4877643;29;20100;-68
2023/01/13 06:39:30;;;;;;;28.98;14.68;;;;;;;;;;4877173;29;20136;-68
2023/01/13 06:44:41;;;;;;;21.00;12.32;;;;;;;;;;4877380;29;20043;-68
2023/01/13 06:47:07;;;;;;;23.95;13.07;;;;;;;;;;4877128;29;20025;-68
2023/01/13 06:49:33;;;;;;;25.77;15.07;;;;;;;;;;4877161;29;20401;-67
2023/01/13 06:51:58;;;;;;;34.13;16.63;;;;;;;;;;4876850;29;20037;-68
2023/01/13 06:54:24;;;;;;;45.67;20.08;;;;;;;;;;4877234;29;20504;-68
2023/01/13 06:56:50;;;;;;;30.70;16.65;;;;;;;;;;4876779;29;20432;-68
2023/01/13 06:59:15;;;;;;;31.05;17.58;;;;;;;;;;4877109;29;20048;-68
2023/01/13 07:01:42;;;;;;;35.17;18.55;;;;;;;;;;4876462;29;20460;-67
2023/01/13 07:04:08;;;;;;;35.72;17.50;;;;;;;;;;4877127;29;20049;-69
2023/01/13 07:06:33;;;;;;;31.55;16.42;;;;;;;;;;4876504;29;20487;-68
2023/01/13 07:08:59;;;;;;;36.75;17.83;;;;;;;;;;4876990;29;20040;-68
2023/01/13 07:11:25;;;;;;;31.35;15.95;;;;;;;;;;4876777;29;20491;-67
2023/01/13 07:16:35;;;;;;;26.50;15.00;;;;;;;;;;4876881;29;20364;-67
2023/01/13 07:19:00;;;;;;;28.27;14.90;;;;;;;;;;4866337;29;20099;-68
2023/01/13 07:21:26;;;;;;;24.15;13.70;;;;;;;;;;4879838;29;20476;-68
2023/01/13 07:23:51;;;;;;;28.95;13.27;;;;;;;;;;4879857;29;20028;-68
2023/01/13 07:26:17;;;;;;;23.48;12.07;;;;;;;;;;4880162;29;20400;-68
2023/01/13 07:28:43;;;;;;;26.23;12.85;;;;;;;;;;4880234;29;20348;-68
2023/01/13 07:31:15;;;;;;;27.83;12.68;;;;;;;;;;4879457;29;20120;-70
2023/01/13 07:33:42;;;;;;;21.92;13.27;;;;;;;;;;4872960;29;20044;-70
2023/01/13 07:36:08;;;;;;;26.70;14.98;;;;;;;;;;4880618;29;20047;-70
2023/01/13 07:38:34;;;;;;;32.72;14.10;;;;;;;;;;4880470;29;20041;-70
2023/01/13 07:43:44;;;;;;;32.67;15.88;;;;;;;;;;4880161;29;20049;-70
2023/01/13 07:46:10;;;;;;;34.80;16.20;;;;;;;;;;4879918;29;20139;-69
2023/01/13 07:48:36;;;;;;;35.92;17.33;;;;;;;;;;4880218;29;20037;-71
2023/01/13 07:51:07;;;;;;;32.35;15.50;;;;;;;;;;4879728;29;20051;-70
2023/01/13 07:53:33;;;;;;;27.95;13.02;;;;;;;;;;4859235;29;20042;-68
2023/01/13 07:56:00;;;;;;;28.13;14.65;;;;;;;;;;4879480;29;20029;-69
2023/01/13 07:58:27;;;;;;;25.30;12.13;;;;;;;;;;4879987;29;20116;-69
2023/01/13 08:00:53;;;;;;;26.10;12.73;;;;;;;;;;4878407;29;20025;-70
2023/01/13 08:03:18;;;;;;;27.55;13.57;;;;;;;;;;4872688;29;20044;-69
2023/01/13 08:05:44;;;;;;;23.92;12.63;;;;;;;;;;4878202;29;20378;-70
2023/01/13 08:08:10;;;;;;;23.80;12.45;;;;;;;;;;4878506;29;20462;-70
2023/01/13 08:10:39;;;;;;;23.13;12.55;;;;;;;;;;4878741;29;20100;-70
2023/01/13 08:13:19;;;;;;;25.60;12.88;;;;;;;;;;4877547;29;20044;-71
2023/01/13 08:15:51;;;;;;;26.17;12.10;;;;;;;;;;4878768;29;20174;-73
2023/01/13 08:18:20;;;;;;;18.55;10.98;;;;;;;;;;4861835;29;20401;-72
2023/01/13 08:20:47;;;;;;;18.92;10.82;;;;;;;;;;4878217;29;20033;-72
2023/01/13 08:23:14;;;;;;;17.40;10.43;;;;;;;;;;4877889;29;20037;-73
2023/01/13 08:25:39;;;;;;;20.48;11.05;;;;;;;;;;4878540;29;20594;-72
2023/01/13 08:28:05;;;;;;;22.60;12.20;;;;;;;;;;4874791;29;20124;-72
2023/01/13 08:30:31;;;;;;;20.65;11.68;;;;;;;;;;4872802;29;20207;-71
2023/01/13 08:32:56;;;;;;;29.40;12.13;;;;;;;;;;4870787;29;20090;-70
2023/01/13 08:35:22;;;;;;;25.58;11.93;;;;;;;;;;4878474;29;20111;-71
2023/01/13 08:37:50;;;;;;;22.20;11.90;;;;;;;;;;4876631;29;20028;-71
2023/01/13 08:40:17;;;;;;;24.23;12.40;;;;;;;;;;4872606;29;20104;-71
2023/01/13 08:42:43;;;;;;;23.00;11.13;;;;;;;;;;4860889;29;20043;-70
2023/01/13 08:45:09;;;;;;;23.98;12.18;;;;;;;;;;4877246;29;20104;-70
2023/01/13 08:47:35;;;;;;;26.20;14.15;;;;;;;;;;4877687;29;20143;-70
2023/01/13 08:50:02;;;;;;;20.88;12.38;;;;;;;;;;4877106;29;20728;-70
2023/01/13 08:52:29;;;;;;;25.42;12.70;;;;;;;;;;4877484;29;20556;-71
2023/01/13 08:54:54;;;;;;;25.65;12.77;;;;;;;;;;4876465;29;20058;-69
2023/01/13 08:57:20;;;;;;;23.20;11.43;;;;;;;;;;4876772;29;20021;-69
2023/01/13 08:59:46;;;;;;;21.73;11.50;;;;;;;;;;4876755;29;20056;-71
2023/01/13 09:02:16;;;;;;;24.17;12.88;;;;;;;;;;4877980;29;20166;-71
2023/01/13 09:04:43;;;;;;;24.48;12.20;;;;;;;;;;4877753;29;20101;-70
2023/01/13 09:07:09;;;;;;;24.58;12.85;;;;;;;;;;4877466;29;20070;-70
2023/01/13 09:09:35;;;;;;;20.92;11.35;;;;;;;;;;4876994;29;20040;-70
2023/01/13 09:14:45;;;;;;;21.23;11.85;;;;;;;;;;4876161;29;20168;-72
2023/01/13 09:17:11;;;;;;;20.30;11.00;;;;;;;;;;4876618;29;20123;-71
2023/01/13 09:19:36;;;;;;;18.20;11.20;;;;;;;;;;4877370;29;20043;-70
2023/01/13 09:22:03;;;;;;;22.60;11.85;;;;;;;;;;4876700;29;20021;-70
2023/01/13 09:24:29;;;;;;;23.08;10.38;;;;;;;;;;4872305;29;20036;-71
2023/01/13 09:26:55;;;;;;;19.15;10.43;;;;;;;;;;4875677;29;20343;-72
2023/01/13 09:29:22;;;;;;;22.98;11.10;;;;;;;;;;4876276;29;20065;-72
2023/01/13 09:31:47;;;;;;;18.08;11.68;;;;;;;;;;4872213;29;20059;-72
2023/01/13 09:37:05;;;;;;;18.98;10.82;;;;;;;;;;4874879;29;20048;-71
2023/01/13 09:39:32;;;;;;;20.88;10.77;;;;;;;;;;4874022;29;20367;-72
2023/01/13 09:45:07;;;;;;;17.08;10.10;;;;;;;;;;4874935;29;20047;-72
2023/01/13 09:47:50;;;;;;;18.93;11.23;;;;;;;;;;4858080;29;20111;-72
2023/01/13 09:50:28;;;;;;;18.20;11.00;;;;;;;;;;4874092;29;20130;-72
2023/01/13 09:52:54;;;;;;;18.95;11.00;;;;;;;;;;4873720;29;20029;-72
2023/01/13 09:55:31;;;;;;;22.55;12.20;;;;;;;;;;4873906;29;20455;-72
2023/01/13 09:57:57;;;;;;;26.88;12.68;;;;;;;;;;4859452;29;20093;-72
2023/01/13 10:00:25;;;;;;;17.38;11.20;;;;;;;;;;4875199;29;20032;-72
2023/01/13 10:03:08;;;;;;;22.92;12.40;;;;;;;;;;4876540;29;20151;-73
2023/01/13 10:05:39;;;;;;;22.97;11.70;;;;;;;;;;4874681;29;20495;-72
2023/01/13 10:08:18;;;;;;;19.77;11.57;;;;;;;;;;4875022;29;20434;-72
2023/01/13 10:10:57;;;;;;;21.67;12.43;;;;;;;;;;4875257;29;20036;-72
2023/01/13 10:13:29;;;;;;;27.23;12.77;;;;;;;;;;4874186;29;20411;-72
2023/01/13 10:15:58;;;;;;;30.35;13.93;;;;;;;;;;4874501;29;20177;-71
2023/01/13 10:18:42;;;;;;;25.65;15.65;;;;;;;;;;4874881;29;20036;-72
2023/01/13 10:21:14;;;;;;;26.08;15.13;;;;;;;;;;4874688;29;20440;-71
2023/01/13 10:23:58;;;;;;;23.50;13.55;;;;;;;;;;4876412;29;20078;-72
2023/01/13 10:26:30;;;;;;;25.85;11.40;;;;;;;;;;4871757;29;20532;-72
2023/01/13 10:28:56;;;;;;;21.95;11.45;;;;;;;;;;4873857;29;20127;-72
2023/01/13 10:31:23;;;;;;;28.80;15.18;;;;;;;;;;4856874;29;20385;-72
2023/01/13 10:34:00;;;;;;;21.20;12.13;;;;;;;;;;4874625;29;20032;-72
2023/01/13 10:36:26;;;;;;;22.42;12.68;;;;;;;;;;4874307;29;20341;-73
2023/01/13 10:38:54;;;;;;;22.88;11.13;;;;;;;;;;4874135;29;20118;-72
2023/01/13 10:41:26;;;;;;;19.27;11.88;;;;;;;;;;4874063;29;20040;-72
2023/01/13 10:44:00;;;;;;;20.20;11.70;;;;;;;;;;4873980;29;20072;-71
2023/01/13 10:46:27;;;;;;;20.70;12.23;;;;;;;;;;4874283;29;20378;-71
2023/01/13 10:49:00;;;;;;;18.45;12.00;;;;;;;;;;4872368;29;20052;-73
2023/01/13 10:51:39;;;;;;;23.42;12.85;;;;;;;;;;4872948;29;20522;-72
2023/01/13 10:54:11;;;;;;;31.27;12.60;;;;;;;;;;4879856;29;20135;-72
2023/01/13 10:56:43;;;;;;;21.08;10.50;;;;;;;;;;4876757;29;20025;-73
2023/01/13 10:59:28;;;;;;;23.70;11.05;;;;;;;;;;4879381;29;20045;-73
2023/01/13 11:01:54;;;;;;;32.42;17.27;;;;;;;;;;4876759;29;20044;-72
2023/01/13 11:27:54;;;;;;;17.80;9.77;;;;;;;;;;4872836;29;20536;-71
2023/01/13 11:32:55;;;;;;;14.82;8.90;;;;;;;;;;4893628;29;20093;-73
2023/01/13 11:35:21;;;;;;;23.55;10.23;;;;;;;;;;4903779;29;20120;-73
2023/01/13 11:37:52;;;;;;;19.05;9.95;;;;;;;;;;4918062;29;20032;-75
2023/01/13 11:40:30;;;;;;;18.77;10.75;;;;;;;;;;4919396;29;20092;-70
2023/01/13 11:43:17;;;;;;;14.77;9.70;;;;;;;;;;4919363;29;20114;-72
2023/01/13 11:45:48;;;;;;;19.13;10.40;;;;;;;;;;4918416;29;20473;-72
2023/01/13 11:48:16;;;;;;;19.10;11.43;;;;;;;;;;4886363;29;20087;-72
2023/01/13 11:50:57;;;;;;;17.75;9.95;;;;;;;;;;4917619;29;20043;-72
2023/01/13 11:53:32;;;;;;;18.55;8.98;;;;;;;;;;4919380;29;20517;-72
2023/01/13 11:56:06;;;;;;;17.92;9.18;;;;;;;;;;4917128;29;20098;-71
2023/01/13 11:58:59;;;;;;;18.05;9.93;;;;;;;;;;4901805;29;20462;-70
2023/01/13 12:01:25;;;;;;;15.45;7.88;;;;;;;;;;4915469;29;20059;-73
2023/01/13 12:04:22;;;;;;;14.25;8.05;;;;;;;;;;4913921;29;20383;-72
2023/01/13 12:07:16;;;;;;;16.88;9.02;;;;;;;;;;4901956;29;20378;-72
2023/01/13 12:10:05;;;;;;;13.18;6.10;;;;;;;;;;4914597;29;20512;-72
2023/01/13 12:12:47;;;;;;;10.50;6.43;;;;;;;;;;4898508;29;20063;-72
2023/01/13 12:15:25;;;;;;;10.00;6.80;;;;;;;;;;4911400;29;20294;-71
2023/01/13 12:17:54;;;;;;;11.75;7.43;;;;;;;;;;4915184;29;20031;-71
2023/01/13 12:20:50;;;;;;;9.15;5.82;;;;;;;;;;4914615;29;20096;-71
2023/01/13 12:23:39;;;;;;;8.73;6.18;;;;;;;;;;4910990;29;20084;-72
2023/01/13 12:26:08;;;;;;;9.85;6.53;;;;;;;;;;4903148;29;20073;-72
2023/01/13 12:28:47;;;;;;;12.95;8.10;;;;;;;;;;4895049;29;20060;-72
2023/01/13 12:31:17;;;;;;;14.30;7.75;;;;;;;;;;4910216;29;20040;-72
2023/01/13 12:34:07;;;;;;;11.52;7.05;;;;;;;;;;4913766;29;20093;-71
2023/01/13 12:37:02;;;;;;;13.20;8.02;;;;;;;;;;4912838;29;20343;-72
2023/01/13 12:39:49;;;;;;;14.43;8.23;;;;;;;;;;4915352;29;20394;-71
2023/01/13 12:45:34;;;;;;;11.85;6.72;;;;;;;;;;4899632;29;20128;-72
2023/01/13 12:48:00;;;;;;;16.77;8.55;;;;;;;;;;4915746;29;20813;-71
2023/01/13 12:50:25;;;;;;;13.18;7.30;;;;;;;;;;4915656;29;20043;-71
2023/01/13 12:53:20;;;;;;;15.70;8.30;;;;;;;;;;4915821;29;20028;-72
2023/01/13 12:55:50;;;;;;;17.20;8.73;;;;;;;;;;4919383;29;20075;-72
2023/01/13 12:58:23;;;;;;;9.73;6.10;;;;;;;;;;4915117;29;20519;-72
2023/01/13 13:01:05;;;;;;;17.37;6.57;;;;;;;;;;4917265;29;20047;-73
2023/01/13 13:03:33;;;;;;;11.98;6.38;;;;;;;;;;4917797;29;20043;-71
2023/01/13 13:06:22;;;;;;;11.52;5.80;;;;;;;;;;4917904;29;20024;-72
2023/01/13 13:09:01;;;;;;;13.00;6.40;;;;;;;;;;4915353;29;20047;-73
2023/01/13 13:14:39;;;;;;;10.88;5.72;;;;;;;;;;4915944;29;20044;-73
2023/01/13 13:17:27;;;;;;;10.20;5.22;;;;;;;;;;4909952;29;20047;-72
2023/01/13 13:19:54;;;;;;;12.57;6.30;;;;;;;;;;4919280;29;20036;-72
2023/01/13 13:22:27;;;;;;;9.75;5.53;;;;;;;;;;4916280;29;20036;-70
2023/01/13 13:24:58;;;;;;;12.60;6.00;;;;;;;;;;4918273;29;20043;-72
2023/01/13 13:27:26;;;;;;;10.98;5.50;;;;;;;;;;4915814;29;20050;-72
2023/01/13 13:29:55;;;;;;;14.35;5.47;;;;;;;;;;4918512;29;20535;-72
2023/01/13 13:33:13;;;;;;;17.48;6.80;;;;;;;;;;4917533;29;20091;-72
2023/01/13 13:35:57;;;;;;;9.90;5.25;;;;;;;;;;4836216;29;20065;-71
2023/01/13 13:47:23;;;;;;;10.00;6.13;;;;;;;;;;4908258;29;20040;-72
2023/01/13 13:49:55;;;;;;;14.80;5.72;;;;;;;;;;4906274;29;20511;-73
2023/01/13 13:52:25;;;;;;;17.10;7.35;;;;;;;;;;4910480;29;20047;-73
2023/01/13 13:54:56;;;;;;;30.02;8.13;;;;;;;;;;4914416;29;20473;-71
2023/01/13 13:57:36;;;;;;;28.23;14.25;;;;;;;;;;4907219;29;20067;-72
2023/01/13 14:00:36;;;;;;;14.48;7.00;;;;;;;;;;4908187;29;20040;-72
2023/01/13 14:03:18;;;;;;;12.85;7.70;;;;;;;;;;4903447;29;20043;-72
2023/01/13 14:05:59;;;;;;;14.77;7.45;;;;;;;;;;4894032;29;20137;-73
2023/01/13 14:08:32;;;;;;;10.35;6.72;;;;;;;;;;4924542;29;20465;-73
2023/01/13 14:10:58;;;;;;;11.10;6.65;;;;;;;;;;4909778;29;20039;-71
2023/01/13 14:13:25;;;;;;;10.68;6.05;;;;;;;;;;4907490;29;20036;-71
2023/01/13 14:16:04;;;;;;;13.10;8.00;;;;;;;;;;4896547;29;20072;-72
2023/01/13 14:18:33;;;;;;;11.73;6.22;;;;;;;;;;4907270;29;20087;-72
2023/01/13 14:21:02;;;;;;;9.98;5.30;;;;;;;;;;4906675;29;20024;-71
2023/01/13 14:23:31;;;;;;;13.07;6.35;;;;;;;;;;4913537;29;20039;-72
2023/01/13 14:26:07;;;;;;;11.90;6.70;;;;;;;;;;4897818;29;20028;-71
2023/01/13 14:28:36;;;;;;;12.07;6.43;;;;;;;;;;4914752;29;20409;-72
2023/01/13 14:31:03;;;;;;;13.85;6.20;;;;;;;;;;4915026;29;20750;-72
2023/01/13 14:33:29;;;;;;;12.55;6.70;;;;;;;;;;4898358;29;20044;-72
2023/01/13 14:36:32;;;;;;;8.88;5.40;;;;;;;;;;4914755;29;20027;-71
2023/01/13 14:39:04;;;;;;;13.85;5.72;;;;;;;;;;4907224;29;20095;-74
2023/01/13 14:41:41;;;;;;;13.52;6.90;;;;;;;;;;4914610;29;20527;-72
2023/01/13 14:44:21;;;;;;;13.90;7.93;;;;;;;;;;4907243;29;20101;-72
2023/01/13 14:46:47;;;;;;;13.80;8.90;;;;;;;;;;4914676;29;20044;-72
2023/01/13 14:49:27;;;;;;;14.43;8.00;;;;;;;;;;4915020;29;20218;-72
2023/01/13 14:52:03;;;;;;;10.60;6.40;;;;;;;;;;4914663;29;20036;-72
2023/01/13 14:54:44;;;;;;;11.45;6.22;;;;;;;;;;4914739;29;20410;-73
2023/01/13 14:57:14;;;;;;;12.15;7.80;;;;;;;;;;4908793;29;20043;-73
2023/01/13 14:59:59;;;;;;;13.00;8.18;;;;;;;;;;4914159;29;20040;-71
2023/01/13 15:02:27;;;;;;;12.65;7.72;;;;;;;;;;4914609;29;20242;-73
2023/01/13 15:04:55;;;;;;;13.77;8.68;;;;;;;;;;4897779;29;20059;-72
2023/01/13 15:07:26;;;;;;;10.40;7.05;;;;;;;;;;4973126;23;20193;-72
2023/01/13 15:09:56;;;;;;;12.60;8.63;;;;;;;;;;4894141;29;20044;-72
2023/01/13 15:12:35;;;;;;;13.05;8.43;;;;;;;;;;4972737;23;20061;-72
2023/01/13 15:15:23;;;;;;;14.45;8.65;;;;;;;;;;4875112;29;20456;-72
2023/01/13 15:17:50;;;;;;;18.63;9.02;;;;;;;;;;4883692;29;20041;-73
2023/01/13 15:20:18;;;;;;;19.55;9.35;;;;;;;;;;4871300;29;20027;-72
2023/01/13 15:22:45;;;;;;;17.23;10.93;;;;;;;;;;4873718;29;20067;-73
2023/01/13 15:25:12;;;;;;;16.50;9.57;;;;;;;;;;4870365;29;20175;-74
2023/01/13 15:27:38;;;;;;;16.00;10.32;;;;;;;;;;4876320;29;20128;-73
2023/01/13 15:30:15;;;;;;;17.80;9.77;;;;;;;;;;4860856;29;20108;-73
2023/01/13 15:32:41;;;;;;;18.73;10.57;;;;;;;;;;4876081;29;20032;-74
2023/01/13 15:35:08;;;;;;;20.25;10.32;;;;;;;;;;4871264;29;20432;-72
2023/01/13 15:37:35;;;;;;;22.67;12.38;;;;;;;;;;4873110;29;20045;-73
2023/01/13 15:40:01;;;;;;;29.00;13.52;;;;;;;;;;4889903;29;20084;-72
2023/01/13 15:47:58;;;;;;;22.90;13.65;;;;;;;;;;4876633;29;20040;-72
2023/01/13 15:50:24;;;;;;;33.88;17.80;;;;;;;;;;4879184;29;20043;-73
2023/01/13 15:52:50;;;;;;;35.30;19.88;;;;;;;;;;4880446;29;20040;-72
2023/01/13 15:55:15;;;;;;;29.35;19.42;;;;;;;;;;4874268;29;20032;-71
2023/01/13 15:57:48;;;;;;;26.73;17.10;;;;;;;;;;4870846;29;20044;-71
2023/01/13 16:00:19;;;;;;;26.25;15.27;;;;;;;;;;4867671;29;20066;-73
2023/01/13 16:02:45;;;;;;;27.75;15.63;;;;;;;;;;4869704;29;20049;-74
2023/01/13 16:05:11;;;;;;;39.78;19.83;;;;;;;;;;4879582;29;20024;-71
2023/01/13 16:07:37;;;;;;;32.63;19.63;;;;;;;;;;4879707;29;20090;-73
2023/01/13 16:10:11;;;;;;;36.22;22.15;;;;;;;;;;4858610;29;20073;-71
2023/01/13 16:12:37;;;;;;;31.83;18.37;;;;;;;;;;4859442;29;20033;-73